createdAt,value
2018-11-28T00:00:47.069Z,885.00
2018-11-28T00:01:47.330Z,885.00
2018-11-28T00:02:47.864Z,884.00
2018-11-28T00:03:48.371Z,883.00
2018-11-28T00:04:48.828Z,883.00
2018-11-28T00:05:49.400Z,883.00
2018-11-28T00:06:49.680Z,885.00
2018-11-28T00:07:49.940Z,886.00
2018-11-28T00:08:50.245Z,888.00
2018-11-28T00:09:51.054Z,885.00
2018-11-28T00:10:51.367Z,884.00
2018-11-28T00:11:51.768Z,883.00
2018-11-28T00:12:52.046Z,882.00
2018-11-28T00:13:52.656Z,883.00
2018-11-28T00:14:53.012Z,883.00
2018-11-28T00:15:53.812Z,882.00
2018-11-28T00:16:02.394Z,882.00
2018-11-28T00:17:03.069Z,884.00
2018-11-28T00:18:03.607Z,883.00
2018-11-28T00:19:04.139Z,884.00
2018-11-28T00:20:04.524Z,885.00
2018-11-28T00:21:05.448Z,886.00
2018-11-28T00:22:05.840Z,889.00
2018-11-28T00:23:06.095Z,885.00
2018-11-28T00:24:06.562Z,888.00
2018-11-28T00:25:06.982Z,885.00
2018-11-28T00:26:07.535Z,884.00
2018-11-28T00:27:07.774Z,886.00
2018-11-28T00:28:08.282Z,885.00
2018-11-28T00:29:08.609Z,878.00
2018-11-28T00:30:08.919Z,886.00
2018-11-28T00:31:09.370Z,886.00
2018-11-28T00:32:09.850Z,885.00
2018-11-28T00:33:10.159Z,888.00
2018-11-28T00:34:10.421Z,885.00
2018-11-28T00:35:10.691Z,885.00
2018-11-28T00:36:11.019Z,888.00
2018-11-28T00:37:11.673Z,879.00
2018-11-28T00:38:12.327Z,885.00
2018-11-28T00:39:12.914Z,886.00
2018-11-28T00:40:13.288Z,876.00
2018-11-28T00:41:13.904Z,883.00
2018-11-28T00:42:14.257Z,886.00
2018-11-28T00:43:14.820Z,885.00
2018-11-28T00:44:15.168Z,885.00
2018-11-28T00:45:15.533Z,885.00
2018-11-28T00:46:15.880Z,884.00
2018-11-28T00:47:16.322Z,883.00
2018-11-28T00:48:16.572Z,883.00
2018-11-28T00:49:16.896Z,883.00
2018-11-28T00:50:17.171Z,883.00
2018-11-28T00:51:17.934Z,881.00
2018-11-28T00:52:17.471Z,881.00
2018-11-28T00:53:18.787Z,881.00
2018-11-28T00:54:19.093Z,881.00
2018-11-28T00:55:19.622Z,881.00
2018-11-28T00:56:19.944Z,881.00
2018-11-28T00:57:20.499Z,882.00
2018-11-28T00:58:21.096Z,882.00
2018-11-28T00:59:22.970Z,885.00
2018-11-28T01:00:21.227Z,884.00
2018-11-28T01:01:23.087Z,884.00
2018-11-28T01:01:31.493Z,876.00
2018-11-28T01:02:32.725Z,889.00
2018-11-28T01:03:33.298Z,888.00
2018-11-28T01:04:33.635Z,886.00
2018-11-28T01:05:33.942Z,885.00
2018-11-28T01:06:34.235Z,884.00
2018-11-28T01:07:34.841Z,883.00
2018-11-28T01:08:35.652Z,883.00
2018-11-28T01:09:36.238Z,882.00
2018-11-28T01:10:36.686Z,882.00
2018-11-28T01:11:37.244Z,884.00
2018-11-28T01:12:37.678Z,884.00
2018-11-28T01:13:38.158Z,884.00
2018-11-28T01:14:38.577Z,884.00
2018-11-28T01:15:38.716Z,886.00
2018-11-28T01:16:38.979Z,885.00
2018-11-28T01:17:39.332Z,885.00
2018-11-28T01:18:39.816Z,884.00
2018-11-28T01:19:40.087Z,885.00
2018-11-28T01:20:40.480Z,885.00
2018-11-28T01:21:40.862Z,885.00
2018-11-28T01:22:41.167Z,885.00
2018-11-28T01:23:41.846Z,884.00
2018-11-28T01:24:42.126Z,884.00
2018-11-28T01:25:42.472Z,884.00
2018-11-28T01:26:42.750Z,883.00
2018-11-28T01:27:43.090Z,884.00
2018-11-28T01:28:46.421Z,884.00
2018-11-28T01:29:43.435Z,886.00
2018-11-28T01:30:44.775Z,885.00
2018-11-28T01:31:45.099Z,889.00
2018-11-28T01:32:45.515Z,888.00
2018-11-28T01:33:46.096Z,886.00
2018-11-28T01:34:46.704Z,886.00
2018-11-28T01:35:47.086Z,889.00
2018-11-28T01:36:47.386Z,893.00
2018-11-28T01:37:47.873Z,893.00
2018-11-28T01:38:48.592Z,894.00
2018-11-28T01:39:48.961Z,895.00
2018-11-28T01:40:49.297Z,894.00
2018-11-28T01:41:49.665Z,891.00
2018-11-28T01:42:49.920Z,889.00
2018-11-28T01:43:50.379Z,890.00
2018-11-28T01:44:50.725Z,890.00
2018-11-28T01:45:51.135Z,889.00
2018-11-28T01:46:51.741Z,888.00
2018-11-28T01:46:59.828Z,888.00
2018-11-28T01:48:01.287Z,886.00
2018-11-28T01:49:01.641Z,886.00
2018-11-28T01:50:01.986Z,885.00
2018-11-28T01:51:02.815Z,888.00
2018-11-28T01:52:03.392Z,889.00
2018-11-28T01:53:03.426Z,889.00
2018-11-28T01:54:03.688Z,889.00
2018-11-28T01:55:04.006Z,889.00
2018-11-28T01:56:04.716Z,888.00
2018-11-28T01:57:04.975Z,888.00
2018-11-28T01:58:05.536Z,888.00
2018-11-28T01:59:05.974Z,888.00
2018-11-28T02:00:06.235Z,888.00
2018-11-28T02:01:06.600Z,886.00
2018-11-28T02:02:06.953Z,885.00
2018-11-28T02:03:07.282Z,886.00
2018-11-28T02:04:07.737Z,885.00
2018-11-28T02:05:07.536Z,885.00
2018-11-28T02:06:09.022Z,885.00
2018-11-28T02:07:09.359Z,885.00
2018-11-28T02:08:09.384Z,885.00
2018-11-28T02:09:09.725Z,885.00
2018-11-28T02:10:10.042Z,885.00
2018-11-28T02:11:10.397Z,885.00
2018-11-28T02:12:10.739Z,888.00
2018-11-28T02:13:11.111Z,888.00
2018-11-28T02:14:11.443Z,886.00
2018-11-28T02:15:11.933Z,886.00
2018-11-28T02:16:12.261Z,885.00
2018-11-28T02:17:12.515Z,885.00
2018-11-28T02:18:13.156Z,885.00
2018-11-28T02:19:13.803Z,885.00
2018-11-28T02:20:14.176Z,889.00
2018-11-28T02:21:14.604Z,890.00
2018-11-28T02:22:15.167Z,892.00
2018-11-28T02:23:15.848Z,890.00
2018-11-28T02:24:16.248Z,889.00
2018-11-28T02:25:16.775Z,888.00
2018-11-28T02:26:17.087Z,889.00
2018-11-28T02:27:17.435Z,890.00
2018-11-28T02:28:17.880Z,890.00
2018-11-28T02:29:18.149Z,889.00
2018-11-28T02:30:18.629Z,888.00
2018-11-28T02:31:18.927Z,888.00
2018-11-28T02:32:19.304Z,888.00
2018-11-28T02:32:27.650Z,886.00
2018-11-28T02:33:28.897Z,886.00
2018-11-28T02:34:29.273Z,886.00
2018-11-28T02:35:29.781Z,886.00
2018-11-28T02:36:30.070Z,886.00
2018-11-28T02:37:30.639Z,885.00
2018-11-28T02:38:31.285Z,885.00
2018-11-28T02:39:31.620Z,886.00
2018-11-28T02:40:32.029Z,885.00
2018-11-28T02:41:32.376Z,886.00
2018-11-28T02:42:32.803Z,886.00
2018-11-28T02:43:33.107Z,886.00
2018-11-28T02:44:33.501Z,886.00
2018-11-28T02:45:33.992Z,886.00
2018-11-28T02:46:34.696Z,886.00
2018-11-28T02:47:35.230Z,890.00
2018-11-28T02:48:35.942Z,888.00
2018-11-28T02:49:36.346Z,888.00
2018-11-28T02:50:36.924Z,888.00
2018-11-28T02:51:37.996Z,888.00
2018-11-28T02:52:36.552Z,888.00
2018-11-28T02:53:38.108Z,886.00
2018-11-28T02:54:38.445Z,888.00
2018-11-28T02:55:38.862Z,890.00
2018-11-28T02:56:39.524Z,890.00
2018-11-28T02:57:39.919Z,890.00
2018-11-28T02:58:40.433Z,892.00
2018-11-28T02:59:40.814Z,890.00
2018-11-28T03:00:41.218Z,888.00
2018-11-28T03:01:41.785Z,888.00
2018-11-28T03:02:42.235Z,888.00
2018-11-28T03:03:42.883Z,886.00
2018-11-28T03:04:43.271Z,888.00
2018-11-28T03:05:43.575Z,886.00
2018-11-28T03:06:43.814Z,888.00
2018-11-28T03:07:44.262Z,886.00
2018-11-28T03:08:44.772Z,886.00
2018-11-28T03:09:45.005Z,886.00
2018-11-28T03:10:45.468Z,886.00
2018-11-28T03:11:45.777Z,886.00
2018-11-28T03:12:46.164Z,886.00
2018-11-28T03:13:46.638Z,886.00
2018-11-28T03:14:46.983Z,886.00
2018-11-28T03:15:47.428Z,886.00
2018-11-28T03:16:47.786Z,886.00
2018-11-28T03:17:48.116Z,886.00
2018-11-28T03:18:48.651Z,886.00
2018-11-28T03:18:57.067Z,886.00
2018-11-28T03:19:58.420Z,886.00
2018-11-28T03:20:59.144Z,886.00
2018-11-28T03:21:59.588Z,886.00
2018-11-28T03:22:59.940Z,886.00
2018-11-28T03:24:00.344Z,888.00
2018-11-28T03:25:00.668Z,886.00
2018-11-28T03:26:01.477Z,886.00
2018-11-28T03:27:01.884Z,886.00
2018-11-28T03:28:02.570Z,889.00
2018-11-28T03:29:02.941Z,889.00
2018-11-28T03:30:03.530Z,888.00
2018-11-28T03:31:03.911Z,888.00
2018-11-28T03:32:04.508Z,888.00
2018-11-28T03:33:04.911Z,888.00
2018-11-28T03:34:05.346Z,888.00
2018-11-28T03:35:05.939Z,888.00
2018-11-28T03:36:06.330Z,888.00
2018-11-28T03:37:06.712Z,889.00
2018-11-28T03:38:07.189Z,888.00
2018-11-28T03:39:07.609Z,888.00
2018-11-28T03:40:07.963Z,888.00
2018-11-28T03:41:08.949Z,880.00
2018-11-28T03:42:09.272Z,890.00
2018-11-28T03:43:09.744Z,889.00
2018-11-28T03:44:10.137Z,888.00
2018-11-28T03:45:10.453Z,889.00
2018-11-28T03:46:10.889Z,889.00
2018-11-28T03:47:11.363Z,889.00
2018-11-28T03:48:11.901Z,888.00
2018-11-28T03:49:12.750Z,888.00
2018-11-28T03:50:13.002Z,889.00
2018-11-28T03:51:13.300Z,889.00
2018-11-28T03:52:13.571Z,888.00
2018-11-28T03:53:13.916Z,879.00
2018-11-28T03:54:14.292Z,888.00
2018-11-28T03:55:14.836Z,888.00
2018-11-28T03:56:15.118Z,888.00
2018-11-28T03:57:15.399Z,888.00
2018-11-28T03:58:15.658Z,886.00
2018-11-28T03:59:15.995Z,888.00
2018-11-28T04:00:16.743Z,888.00
2018-11-28T04:01:17.042Z,886.00
2018-11-28T04:02:17.513Z,886.00
2018-11-28T04:02:26.556Z,879.00
2018-11-28T04:03:27.889Z,886.00
2018-11-28T04:04:28.320Z,888.00
2018-11-28T04:05:28.678Z,886.00
2018-11-28T04:06:29.235Z,886.00
2018-11-28T04:07:29.621Z,886.00
2018-11-28T04:08:30.301Z,886.00
2018-11-28T04:09:30.922Z,888.00
2018-11-28T04:10:31.260Z,886.00
2018-11-28T04:11:31.685Z,886.00
2018-11-28T04:12:32.020Z,886.00
2018-11-28T04:13:32.461Z,886.00
2018-11-28T04:14:32.875Z,886.00
2018-11-28T04:15:33.283Z,886.00
2018-11-28T04:16:33.892Z,886.00
2018-11-28T04:17:34.358Z,886.00
2018-11-28T04:18:34.771Z,886.00
2018-11-28T04:19:35.245Z,885.00
2018-11-28T04:20:35.130Z,886.00
2018-11-28T04:21:36.618Z,886.00
2018-11-28T04:22:36.977Z,888.00
2018-11-28T04:23:37.371Z,886.00
2018-11-28T04:24:37.856Z,886.00
2018-11-28T04:25:38.220Z,886.00
2018-11-28T04:26:38.543Z,888.00
2018-11-28T04:27:39.057Z,886.00
2018-11-28T04:28:39.458Z,888.00
2018-11-28T04:29:38.950Z,888.00
2018-11-28T04:30:40.369Z,888.00
2018-11-28T04:31:40.841Z,888.00
2018-11-28T04:32:41.382Z,888.00
2018-11-28T04:33:41.800Z,888.00
2018-11-28T04:34:42.293Z,886.00
2018-11-28T04:35:42.707Z,886.00
2018-11-28T04:36:43.227Z,886.00
2018-11-28T04:37:43.646Z,886.00
2018-11-28T04:38:44.256Z,886.00
2018-11-28T04:39:44.675Z,886.00
2018-11-28T04:40:45.364Z,888.00
2018-11-28T04:41:46.165Z,886.00
2018-11-28T04:42:46.517Z,888.00
2018-11-28T04:43:46.746Z,888.00
2018-11-28T04:44:47.107Z,888.00
2018-11-28T04:45:47.463Z,888.00
2018-11-28T04:46:47.834Z,888.00
2018-11-28T04:47:48.287Z,886.00
2018-11-28T04:48:48.646Z,888.00
2018-11-28T04:48:57.001Z,888.00
2018-11-28T04:49:58.159Z,888.00
2018-11-28T04:50:58.520Z,888.00
2018-11-28T04:51:58.954Z,889.00
2018-11-28T04:52:59.435Z,889.00
2018-11-28T04:53:59.808Z,888.00
2018-11-28T04:55:00.226Z,888.00
2018-11-28T04:56:00.643Z,888.00
2018-11-28T04:57:00.972Z,886.00
2018-11-28T04:58:01.458Z,886.00
2018-11-28T04:59:01.806Z,888.00
2018-11-28T05:00:02.258Z,886.00
2018-11-28T05:01:02.719Z,884.00
2018-11-28T05:02:03.339Z,886.00
2018-11-28T05:03:03.728Z,886.00
2018-11-28T05:04:04.110Z,886.00
2018-11-28T05:05:04.988Z,886.00
2018-11-28T05:06:05.094Z,886.00
2018-11-28T05:07:05.358Z,888.00
2018-11-28T05:08:05.605Z,886.00
2018-11-28T05:09:06.120Z,888.00
2018-11-28T05:10:07.082Z,889.00
2018-11-28T05:11:07.594Z,888.00
2018-11-28T05:12:08.027Z,888.00
2018-11-28T05:13:08.453Z,886.00
2018-11-28T05:14:08.889Z,886.00
2018-11-28T05:15:09.566Z,890.00
2018-11-28T05:16:10.073Z,889.00
2018-11-28T05:17:10.468Z,889.00
2018-11-28T05:18:10.876Z,889.00
2018-11-28T05:19:11.509Z,889.00
2018-11-28T05:20:11.982Z,888.00
2018-11-28T05:21:12.460Z,888.00
2018-11-28T05:22:13.133Z,888.00
2018-11-28T05:23:13.835Z,888.00
2018-11-28T05:24:14.617Z,888.00
2018-11-28T05:25:15.125Z,888.00
2018-11-28T05:26:15.152Z,888.00
2018-11-28T05:27:15.652Z,888.00
2018-11-28T05:28:16.176Z,886.00
2018-11-28T05:29:16.928Z,888.00
2018-11-28T05:30:17.333Z,886.00
2018-11-28T05:31:17.925Z,886.00
2018-11-28T05:32:18.845Z,886.00
2018-11-28T05:32:27.815Z,886.00
2018-11-28T05:33:29.113Z,886.00
2018-11-28T05:34:29.540Z,888.00
2018-11-28T05:35:29.987Z,886.00
2018-11-28T05:36:30.385Z,886.00
2018-11-28T05:37:30.737Z,886.00
2018-11-28T05:38:31.248Z,888.00
2018-11-28T05:39:31.798Z,888.00
2018-11-28T05:40:32.134Z,888.00
2018-11-28T05:41:32.478Z,886.00
2018-11-28T05:42:32.859Z,888.00
2018-11-28T05:43:33.183Z,889.00
2018-11-28T05:44:33.733Z,889.00
2018-11-28T05:45:34.261Z,889.00
2018-11-28T05:46:34.803Z,888.00
2018-11-28T05:47:35.342Z,889.00
2018-11-28T05:48:35.872Z,888.00
2018-11-28T05:49:36.299Z,888.00
2018-11-28T05:50:36.905Z,888.00
2018-11-28T05:51:37.269Z,886.00
2018-11-28T05:52:37.799Z,888.00
2018-11-28T05:53:38.145Z,888.00
2018-11-28T05:54:38.570Z,888.00
2018-11-28T05:55:38.989Z,888.00
2018-11-28T05:56:39.770Z,888.00
2018-11-28T05:57:39.274Z,886.00
2018-11-28T05:58:40.743Z,886.00
2018-11-28T05:59:41.150Z,888.00
2018-11-28T06:00:41.525Z,886.00
2018-11-28T06:01:41.031Z,886.00
2018-11-28T06:02:42.740Z,886.00
2018-11-28T06:03:43.101Z,886.00
2018-11-28T06:04:43.665Z,886.00
2018-11-28T06:05:44.085Z,885.00
2018-11-28T06:06:44.456Z,886.00
2018-11-28T06:07:44.905Z,886.00
2018-11-28T06:08:45.445Z,886.00
2018-11-28T06:09:45.923Z,886.00
2018-11-28T06:10:46.257Z,886.00
2018-11-28T06:11:46.652Z,888.00
2018-11-28T06:12:47.100Z,888.00
2018-11-28T06:13:47.613Z,888.00
2018-11-28T06:14:48.009Z,888.00
2018-11-28T06:15:48.431Z,886.00
2018-11-28T06:16:48.964Z,886.00
2018-11-28T06:17:49.505Z,886.00
2018-11-28T06:18:50.394Z,886.00
2018-11-28T06:18:58.784Z,886.00
2018-11-28T06:20:00.162Z,886.00
2018-11-28T06:21:01.056Z,886.00
2018-11-28T06:22:01.487Z,886.00
2018-11-28T06:23:01.914Z,886.00
2018-11-28T06:24:02.516Z,886.00
2018-11-28T06:25:02.993Z,888.00
2018-11-28T06:26:03.917Z,888.00
2018-11-28T06:27:04.415Z,888.00
2018-11-28T06:28:04.729Z,888.00
2018-11-28T06:29:05.219Z,886.00
2018-11-28T06:30:05.841Z,886.00
2018-11-28T06:31:06.226Z,889.00
2018-11-28T06:32:06.572Z,889.00
2018-11-28T06:33:05.990Z,888.00
2018-11-28T06:34:07.118Z,888.00
2018-11-28T06:35:07.678Z,888.00
2018-11-28T06:36:08.011Z,889.00
2018-11-28T06:37:08.257Z,888.00
2018-11-28T06:38:08.614Z,889.00
2018-11-28T06:39:09.044Z,889.00
2018-11-28T06:40:09.381Z,888.00
2018-11-28T06:41:09.738Z,888.00
2018-11-28T06:42:10.265Z,888.00
2018-11-28T06:43:10.615Z,888.00
2018-11-28T06:44:11.085Z,888.00
2018-11-28T06:45:11.445Z,888.00
2018-11-28T06:46:11.818Z,888.00
2018-11-28T06:47:12.066Z,888.00
2018-11-28T06:48:12.445Z,888.00
2018-11-28T06:49:12.993Z,888.00
2018-11-28T06:50:13.490Z,886.00
2018-11-28T06:51:13.889Z,888.00
2018-11-28T06:52:14.642Z,886.00
2018-11-28T06:53:15.071Z,888.00
2018-11-28T06:54:15.795Z,890.00
2018-11-28T06:55:16.047Z,893.00
2018-11-28T06:56:16.297Z,890.00
2018-11-28T06:57:16.678Z,889.00
2018-11-28T06:58:16.999Z,890.00
2018-11-28T06:59:17.491Z,890.00
2018-11-28T07:00:18.192Z,889.00
2018-11-28T07:01:18.729Z,888.00
2018-11-28T07:02:19.136Z,888.00
2018-11-28T07:03:19.538Z,886.00
2018-11-28T07:04:19.959Z,886.00
2018-11-28T07:05:20.413Z,886.00
2018-11-28T07:05:28.816Z,886.00
2018-11-28T07:06:30.204Z,886.00
2018-11-28T07:07:31.086Z,888.00
2018-11-28T07:08:31.383Z,888.00
2018-11-28T07:09:31.690Z,888.00
2018-11-28T07:10:32.110Z,886.00
2018-11-28T07:11:32.680Z,886.00
2018-11-28T07:12:33.014Z,886.00
2018-11-28T07:13:33.367Z,886.00
2018-11-28T07:14:33.822Z,888.00
2018-11-28T07:15:34.193Z,888.00
2018-11-28T07:16:34.592Z,886.00
2018-11-28T07:17:35.187Z,886.00
2018-11-28T07:18:35.647Z,886.00
2018-11-28T07:19:36.009Z,890.00
2018-11-28T07:20:36.599Z,890.00
2018-11-28T07:21:36.953Z,889.00
2018-11-28T07:22:37.305Z,888.00
2018-11-28T07:23:37.323Z,888.00
2018-11-28T07:24:37.668Z,888.00
2018-11-28T07:25:38.126Z,888.00
2018-11-28T07:26:38.577Z,888.00
2018-11-28T07:27:44.803Z,888.00
2018-11-28T07:28:38.475Z,888.00
2018-11-28T07:29:39.940Z,891.00
2018-11-28T07:30:39.299Z,889.00
2018-11-28T07:31:40.987Z,888.00
2018-11-28T07:32:41.319Z,886.00
2018-11-28T07:33:41.806Z,886.00
2018-11-28T07:34:42.327Z,886.00
2018-11-28T07:35:42.698Z,888.00
2018-11-28T07:36:43.254Z,888.00
2018-11-28T07:37:43.530Z,886.00
2018-11-28T07:38:43.873Z,886.00
2018-11-28T07:39:44.254Z,888.00
2018-11-28T07:40:44.724Z,886.00
2018-11-28T07:41:45.084Z,886.00
2018-11-28T07:42:45.831Z,886.00
2018-11-28T07:43:46.344Z,886.00
2018-11-28T07:44:46.802Z,886.00
2018-11-28T07:45:47.405Z,886.00
2018-11-28T07:46:46.868Z,885.00
2018-11-28T07:47:48.323Z,885.00
2018-11-28T07:48:48.647Z,885.00
2018-11-28T07:49:49.198Z,889.00
2018-11-28T07:50:49.659Z,888.00
2018-11-28T07:51:50.100Z,886.00
2018-11-28T07:52:50.495Z,886.00
2018-11-28T07:52:58.849Z,886.00
2018-11-28T07:54:00.362Z,886.00
2018-11-28T07:55:00.796Z,885.00
2018-11-28T07:56:01.268Z,885.00
2018-11-28T07:57:01.714Z,885.00
2018-11-28T07:58:02.119Z,885.00
2018-11-28T07:59:02.583Z,885.00
2018-11-28T08:00:03.026Z,888.00
2018-11-28T08:01:03.498Z,886.00
2018-11-28T08:02:03.852Z,886.00
2018-11-28T08:03:04.307Z,885.00
2018-11-28T08:04:04.706Z,886.00
2018-11-28T08:05:05.250Z,886.00
2018-11-28T08:06:05.637Z,885.00
2018-11-28T08:07:05.682Z,885.00
2018-11-28T08:08:06.299Z,885.00
2018-11-28T08:09:06.719Z,884.00
2018-11-28T08:10:07.200Z,884.00
2018-11-28T08:11:07.652Z,884.00
2018-11-28T08:12:08.032Z,885.00
2018-11-28T08:13:08.482Z,884.00
2018-11-28T08:14:08.489Z,884.00
2018-11-28T08:15:08.947Z,884.00
2018-11-28T08:16:09.322Z,886.00
2018-11-28T08:17:09.782Z,885.00
2018-11-28T08:18:10.282Z,884.00
2018-11-28T08:19:10.638Z,884.00
2018-11-28T08:20:11.062Z,885.00
2018-11-28T08:21:11.475Z,885.00
2018-11-28T08:22:11.839Z,885.00
2018-11-28T08:23:12.390Z,884.00
2018-11-28T08:24:12.791Z,884.00
2018-11-28T08:25:13.591Z,883.00
2018-11-28T08:26:14.272Z,883.00
2018-11-28T08:27:14.759Z,883.00
2018-11-28T08:28:15.223Z,883.00
2018-11-28T08:29:14.790Z,883.00
2018-11-28T08:30:15.113Z,883.00
2018-11-28T08:31:16.557Z,882.00
2018-11-28T08:32:17.065Z,883.00
2018-11-28T08:33:17.382Z,883.00
2018-11-28T08:34:17.819Z,885.00
2018-11-28T08:35:18.272Z,884.00
2018-11-28T08:36:19.217Z,883.00
2018-11-28T08:37:19.715Z,882.00
2018-11-28T08:38:20.282Z,883.00
2018-11-28T08:39:20.659Z,883.00
2018-11-28T08:39:29.057Z,882.00
2018-11-28T08:40:30.453Z,885.00
2018-11-28T08:41:30.857Z,883.00
2018-11-28T08:42:31.222Z,882.00
2018-11-28T08:43:31.842Z,880.00
2018-11-28T08:44:32.513Z,882.00
2018-11-28T08:45:32.961Z,884.00
2018-11-28T08:46:33.376Z,882.00
2018-11-28T08:47:34.066Z,881.00
2018-11-28T08:48:34.452Z,881.00
2018-11-28T08:49:33.802Z,880.00
2018-11-28T08:50:35.176Z,880.00
2018-11-28T08:51:37.367Z,879.00
2018-11-28T08:52:35.537Z,880.00
2018-11-28T08:53:35.898Z,880.00
2018-11-28T08:54:37.369Z,879.00
2018-11-28T08:55:37.821Z,879.00
2018-11-28T08:56:38.276Z,879.00
2018-11-28T08:57:38.876Z,879.00
2018-11-28T08:58:39.263Z,879.00
2018-11-28T08:59:38.659Z,879.00
2018-11-28T09:00:40.280Z,880.00
2018-11-28T09:01:40.684Z,881.00
2018-11-28T09:02:39.975Z,880.00
2018-11-28T09:03:41.474Z,881.00
2018-11-28T09:04:42.158Z,880.00
2018-11-28T09:05:42.362Z,880.00
2018-11-28T09:06:42.784Z,880.00
2018-11-28T09:07:43.151Z,882.00
2018-11-28T09:08:43.754Z,881.00
2018-11-28T09:09:44.210Z,883.00
2018-11-28T09:10:44.875Z,880.00
2018-11-28T09:11:45.263Z,880.00
2018-11-28T09:12:45.162Z,880.00
2018-11-28T09:13:46.575Z,881.00
2018-11-28T09:14:47.164Z,881.00
2018-11-28T09:15:49.121Z,883.00
2018-11-28T09:16:48.224Z,881.00
2018-11-28T09:17:48.849Z,881.00
2018-11-28T09:18:49.250Z,880.00
2018-11-28T09:19:49.894Z,880.00
2018-11-28T09:20:50.595Z,880.00
2018-11-28T09:21:51.057Z,884.00
2018-11-28T09:22:51.445Z,883.00
2018-11-28T09:23:51.838Z,883.00
2018-11-28T09:24:52.297Z,881.00
2018-11-28T09:25:52.764Z,880.00
2018-11-28T09:26:53.501Z,880.00
2018-11-28T09:27:53.913Z,880.00
2018-11-28T09:28:02.363Z,880.00
2018-11-28T09:29:03.797Z,880.00
2018-11-28T09:30:04.183Z,883.00
2018-11-28T09:31:04.810Z,881.00
2018-11-28T09:32:05.349Z,880.00
2018-11-28T09:33:05.856Z,880.00
2018-11-28T09:34:06.237Z,880.00
2018-11-28T09:35:06.536Z,881.00
2018-11-28T09:36:07.134Z,884.00
2018-11-28T09:37:07.542Z,883.00
2018-11-28T09:38:07.879Z,880.00
2018-11-28T09:39:08.273Z,879.00
2018-11-28T09:40:08.611Z,880.00
2018-11-28T09:41:09.002Z,879.00
2018-11-28T09:42:09.654Z,878.00
2018-11-28T09:43:10.012Z,878.00
2018-11-28T09:44:10.680Z,876.00
2018-11-28T09:45:11.086Z,878.00
2018-11-28T09:46:11.802Z,878.00
2018-11-28T09:47:12.448Z,876.00
2018-11-28T09:48:12.969Z,877.00
2018-11-28T09:49:13.957Z,877.00
2018-11-28T09:50:14.414Z,879.00
2018-11-28T09:51:14.779Z,878.00
2018-11-28T09:52:15.411Z,878.00
2018-11-28T09:53:15.998Z,876.00
2018-11-28T09:54:16.498Z,876.00
2018-11-28T09:55:17.005Z,876.00
2018-11-28T09:56:17.354Z,876.00
2018-11-28T09:57:18.049Z,874.00
2018-11-28T09:58:18.672Z,876.00
2018-11-28T09:59:19.441Z,876.00
2018-11-28T10:00:19.913Z,874.00
2018-11-28T10:01:20.306Z,874.00
2018-11-28T10:02:20.801Z,874.00
2018-11-28T10:03:21.555Z,876.00
2018-11-28T10:04:22.008Z,874.00
2018-11-28T10:05:22.493Z,874.00
2018-11-28T10:06:22.848Z,874.00
2018-11-28T10:07:23.291Z,874.00
2018-11-28T10:08:23.749Z,874.00
2018-11-28T10:09:24.295Z,874.00
2018-11-28T10:10:23.667Z,874.00
2018-11-28T10:11:25.199Z,878.00
2018-11-28T10:12:25.731Z,879.00
2018-11-28T10:13:26.439Z,880.00
2018-11-28T10:13:34.778Z,880.00
2018-11-28T10:14:36.130Z,886.00
2018-11-28T10:15:36.649Z,885.00
2018-11-28T10:16:37.157Z,883.00
2018-11-28T10:17:37.513Z,880.00
2018-11-28T10:18:38.231Z,879.00
2018-11-28T10:19:38.623Z,879.00
2018-11-28T10:20:39.216Z,879.00
2018-11-28T10:21:39.729Z,878.00
2018-11-28T10:22:40.142Z,877.00
2018-11-28T10:23:40.581Z,877.00
2018-11-28T10:24:40.908Z,876.00
2018-11-28T10:25:41.275Z,876.00
2018-11-28T10:26:41.728Z,876.00
2018-11-28T10:27:42.124Z,878.00
2018-11-28T10:28:42.673Z,876.00
2018-11-28T10:29:43.041Z,876.00
2018-11-28T10:30:43.398Z,874.00
2018-11-28T10:31:43.789Z,874.00
2018-11-28T10:32:44.168Z,876.00
2018-11-28T10:33:45.082Z,874.00
2018-11-28T10:34:45.444Z,873.00
2018-11-28T10:35:46.644Z,874.00
2018-11-28T10:36:45.418Z,871.00
2018-11-28T10:37:46.960Z,872.00
2018-11-28T10:38:46.379Z,873.00
2018-11-28T10:39:47.746Z,874.00
2018-11-28T10:40:48.132Z,873.00
2018-11-28T10:41:48.629Z,873.00
2018-11-28T10:42:49.052Z,872.00
2018-11-28T10:43:49.510Z,874.00
2018-11-28T10:44:49.866Z,874.00
2018-11-28T10:45:50.280Z,874.00
2018-11-28T10:46:50.817Z,873.00
2018-11-28T10:47:50.928Z,873.00
2018-11-28T10:48:51.393Z,873.00
2018-11-28T10:49:51.909Z,874.00
2018-11-28T10:50:52.487Z,874.00
2018-11-28T10:51:53.128Z,876.00
2018-11-28T10:52:53.474Z,874.00
2018-11-28T10:53:53.999Z,876.00
2018-11-28T10:54:53.218Z,878.00
2018-11-28T10:55:54.658Z,876.00
2018-11-28T10:56:55.178Z,876.00
2018-11-28T10:57:55.520Z,876.00
2018-11-28T10:58:55.906Z,876.00
2018-11-28T10:59:56.643Z,877.00
2018-11-28T11:00:04.958Z,869.00
2018-11-28T11:01:06.335Z,876.00
2018-11-28T11:02:06.707Z,874.00
2018-11-28T11:03:07.346Z,878.00
2018-11-28T11:04:07.845Z,876.00
2018-11-28T11:05:08.523Z,876.00
2018-11-28T11:06:08.950Z,876.00
2018-11-28T11:07:08.247Z,874.00
2018-11-28T11:08:09.661Z,874.00
2018-11-28T11:09:10.010Z,874.00
2018-11-28T11:10:10.360Z,873.00
2018-11-28T11:11:10.746Z,873.00
2018-11-28T11:12:11.023Z,873.00
2018-11-28T11:13:11.402Z,873.00
2018-11-28T11:14:11.776Z,873.00
2018-11-28T11:15:12.187Z,873.00
2018-11-28T11:16:12.730Z,873.00
2018-11-28T11:17:13.141Z,873.00
2018-11-28T11:18:13.531Z,873.00
2018-11-28T11:19:13.910Z,871.00
2018-11-28T11:20:14.312Z,871.00
2018-11-28T11:21:14.683Z,871.00
2018-11-28T11:22:15.394Z,874.00
2018-11-28T11:23:15.740Z,874.00
2018-11-28T11:24:16.031Z,873.00
2018-11-28T11:25:16.398Z,872.00
2018-11-28T11:26:16.824Z,872.00
2018-11-28T11:27:17.244Z,873.00
2018-11-28T11:28:17.572Z,874.00
2018-11-28T11:29:18.047Z,876.00
2018-11-28T11:30:19.061Z,874.00
2018-11-28T11:31:19.437Z,874.00
2018-11-28T11:32:19.777Z,874.00
2018-11-28T11:33:20.216Z,874.00
2018-11-28T11:34:20.747Z,874.00
2018-11-28T11:35:21.169Z,874.00
2018-11-28T11:36:20.512Z,874.00
2018-11-28T11:37:21.923Z,873.00
2018-11-28T11:38:22.469Z,871.00
2018-11-28T11:39:21.764Z,873.00
2018-11-28T11:40:23.292Z,872.00
2018-11-28T11:41:23.823Z,871.00
2018-11-28T11:42:23.255Z,872.00
2018-11-28T11:43:24.754Z,873.00
2018-11-28T11:44:25.285Z,872.00
2018-11-28T11:45:25.891Z,873.00
2018-11-28T11:46:26.426Z,871.00
2018-11-28T11:47:26.911Z,871.00
2018-11-28T11:47:34.972Z,871.00
2018-11-28T11:48:36.458Z,871.00
2018-11-28T11:49:36.938Z,871.00
2018-11-28T11:50:37.510Z,872.00
2018-11-28T11:51:38.008Z,873.00
2018-11-28T11:52:38.591Z,873.00
2018-11-28T11:53:38.983Z,872.00
2018-11-28T11:54:39.524Z,871.00
2018-11-28T11:55:39.081Z,871.00
2018-11-28T11:56:39.632Z,873.00
2018-11-28T11:57:41.202Z,871.00
2018-11-28T11:58:41.615Z,871.00
2018-11-28T11:59:42.037Z,873.00
2018-11-28T12:00:42.528Z,871.00
2018-11-28T12:01:43.004Z,871.00
2018-11-28T12:02:43.540Z,871.00
2018-11-28T12:03:44.377Z,871.00
2018-11-28T12:04:44.914Z,872.00
2018-11-28T12:05:45.387Z,871.00
2018-11-28T12:06:46.065Z,871.00
2018-11-28T12:07:46.665Z,873.00
2018-11-28T12:08:47.305Z,873.00
2018-11-28T12:09:47.635Z,871.00
2018-11-28T12:10:48.245Z,873.00
2018-11-28T12:11:48.674Z,872.00
2018-11-28T12:12:51.637Z,871.00
2018-11-28T12:13:48.516Z,871.00
2018-11-28T12:14:49.901Z,871.00
2018-11-28T12:15:50.518Z,871.00
2018-11-28T12:16:51.013Z,871.00
2018-11-28T12:17:51.525Z,871.00
2018-11-28T12:18:51.896Z,871.00
2018-11-28T12:19:52.353Z,873.00
2018-11-28T12:20:52.760Z,874.00